Terminal Aerodrome Forecast
Issued by NWS

Home | Current Version | Previous Version | Graphics & Text | Print | Product List | Glossary On
Versions: 1 2 3 4 5 6 7 8 9 10 11 12 13 14 15
000
FTUS43 KOAX 241140
TAFCDR
TAF
KCDR 241140Z 2412/2512 29011KT P6SM SCT030 SCT100
     FM241400 28015G24KT P6SM BKN150
     FM241800 28020G32KT P6SM BKN100
     FM250200 32010KT P6SM SCT100
     FM250400 34006KT P6SM VCSH SCT007 BKN050=

USA.gov is the U.S. government's official web portal to all federal, state and local government web resources and services.